sensor_id;sensor_type;location;lat;lon;timestamp;temperature;humidity
67005;HTU21D;53920;51.094;5.902;2023-01-29T00:01:42;-1.50;77.92
67005;HTU21D;53920;51.094;5.902;2023-01-29T00:04:08;-1.47;77.91
67005;HTU21D;53920;51.094;5.902;2023-01-29T00:06:34;-1.47;77.78
67005;HTU21D;53920;51.094;5.902;2023-01-29T00:09:00;-1.45;77.80
67005;HTU21D;53920;51.094;5.902;2023-01-29T00:11:26;-1.45;77.82
67005;HTU21D;53920;51.094;5.902;2023-01-29T00:13:52;-1.46;77.78
67005;HTU21D;53920;51.094;5.902;2023-01-29T00:16:18;-1.45;77.72
67005;HTU21D;53920;51.094;5.902;2023-01-29T00:18:45;-1.45;77.60
67005;HTU21D;53920;51.094;5.902;2023-01-29T00:21:14;-1.47;77.46
67005;HTU21D;53920;51.094;5.902;2023-01-29T00:23:41;-1.50;77.42
67005;HTU21D;53920;51.094;5.902;2023-01-29T00:26:07;-1.50;77.45
67005;HTU21D;53920;51.094;5.902;2023-01-29T00:28:34;-1.53;77.21
67005;HTU21D;53920;51.094;5.902;2023-01-29T00:31:17;-1.57;77.40
67005;HTU21D;53920;51.094;5.902;2023-01-29T00:33:43;-1.58;77.48
67005;HTU21D;53920;51.094;5.902;2023-01-29T00:36:13;-1.60;77.55
67005;HTU21D;53920;51.094;5.902;2023-01-29T00:38:39;-1.61;77.58
67005;HTU21D;53920;51.094;5.902;2023-01-29T00:41:13;-1.62;77.42
67005;HTU21D;53920;51.094;5.902;2023-01-29T00:44:00;-1.62;77.34
67005;HTU21D;53920;51.094;5.902;2023-01-29T00:46:45;-1.67;76.99
67005;HTU21D;53920;51.094;5.902;2023-01-29T00:49:11;-1.68;76.94
67005;HTU21D;53920;51.094;5.902;2023-01-29T00:51:38;-1.72;76.94
67005;HTU21D;53920;51.094;5.902;2023-01-29T00:54:05;-1.71;77.36
67005;HTU21D;53920;51.094;5.902;2023-01-29T00:56:34;-1.71;77.31
67005;HTU21D;53920;51.094;5.902;2023-01-29T00:59:00;-1.69;76.96
67005;HTU21D;53920;51.094;5.902;2023-01-29T01:01:27;-1.71;76.93
67005;HTU21D;53920;51.094;5.902;2023-01-29T01:04:12;-1.74;77.12
67005;HTU21D;53920;51.094;5.902;2023-01-29T01:06:41;-1.74;77.24
67005;HTU21D;53920;51.094;5.902;2023-01-29T01:09:09;-1.76;77.34
67005;HTU21D;53920;51.094;5.902;2023-01-29T01:11:54;-1.75;77.34
67005;HTU21D;53920;51.094;5.902;2023-01-29T01:14:20;-1.74;77.15
67005;HTU21D;53920;51.094;5.902;2023-01-29T01:16:48;-1.75;76.96
67005;HTU21D;53920;51.094;5.902;2023-01-29T01:19:14;-1.77;76.59
67005;HTU21D;53920;51.094;5.902;2023-01-29T01:21:41;-1.83;76.60
67005;HTU21D;53920;51.094;5.902;2023-01-29T01:24:11;-1.85;76.56
67005;HTU21D;53920;51.094;5.902;2023-01-29T01:26:38;-1.87;76.83
67005;HTU21D;53920;51.094;5.902;2023-01-29T01:29:04;-1.87;77.37
67005;HTU21D;53920;51.094;5.902;2023-01-29T01:31:30;-1.84;77.60
67005;HTU21D;53920;51.094;5.902;2023-01-29T01:33:56;-1.83;77.96
67005;HTU21D;53920;51.094;5.902;2023-01-29T01:36:24;-1.79;78.24
67005;HTU21D;53920;51.094;5.902;2023-01-29T01:38:50;-1.75;78.37
67005;HTU21D;53920;51.094;5.902;2023-01-29T01:41:19;-1.71;78.23
67005;HTU21D;53920;51.094;5.902;2023-01-29T01:43:52;-1.71;77.84
67005;HTU21D;53920;51.094;5.902;2023-01-29T01:46:19;-1.72;77.66
67005;HTU21D;53920;51.094;5.902;2023-01-29T01:48:53;-1.75;77.44
67005;HTU21D;53920;51.094;5.902;2023-01-29T01:51:23;-1.79;77.47
67005;HTU21D;53920;51.094;5.902;2023-01-29T01:54:11;-1.78;77.64
67005;HTU21D;53920;51.094;5.902;2023-01-29T01:56:44;-1.77;77.23
67005;HTU21D;53920;51.094;5.902;2023-01-29T01:59:16;-1.83;76.73
67005;HTU21D;53920;51.094;5.902;2023-01-29T02:01:46;-1.89;76.87
67005;HTU21D;53920;51.094;5.902;2023-01-29T02:04:21;-1.86;77.21
67005;HTU21D;53920;51.094;5.902;2023-01-29T02:07:13;-1.87;77.15
67005;HTU21D;53920;51.094;5.902;2023-01-29T02:10:09;-1.88;77.31
67005;HTU21D;53920;51.094;5.902;2023-01-29T02:12:37;-1.88;77.29
67005;HTU21D;53920;51.094;5.902;2023-01-29T02:15:03;-1.89;77.40
67005;HTU21D;53920;51.094;5.902;2023-01-29T02:17:31;-1.88;77.50
67005;HTU21D;53920;51.094;5.902;2023-01-29T02:20:18;-1.88;77.36
67005;HTU21D;53920;51.094;5.902;2023-01-29T02:23:40;-1.90;77.28
67005;HTU21D;53920;51.094;5.902;2023-01-29T02:35:18;-1.99;77.07
67005;HTU21D;53920;51.094;5.902;2023-01-29T02:38:28;-2.04;76.76
67005;HTU21D;53920;51.094;5.902;2023-01-29T02:41:21;-2.10;76.74
67005;HTU21D;53920;51.094;5.902;2023-01-29T02:46:33;-2.14;76.95
67005;HTU21D;53920;51.094;5.902;2023-01-29T02:49:32;-2.15;77.35
67005;HTU21D;53920;51.094;5.902;2023-01-29T02:52:22;-2.16;77.06
67005;HTU21D;53920;51.094;5.902;2023-01-29T02:55:12;-2.19;77.45
67005;HTU21D;53920;51.094;5.902;2023-01-29T02:57:43;-2.16;78.04
67005;HTU21D;53920;51.094;5.902;2023-01-29T03:00:19;-2.06;78.22
67005;HTU21D;53920;51.094;5.902;2023-01-29T03:03:20;-2.03;78.10
67005;HTU21D;53920;51.094;5.902;2023-01-29T03:09:17;-1.98;78.10
67005;HTU21D;53920;51.094;5.902;2023-01-29T03:11:51;-1.98;78.17
67005;HTU21D;53920;51.094;5.902;2023-01-29T03:14:29;-1.97;78.36
67005;HTU21D;53920;51.094;5.902;2023-01-29T03:17:21;-1.94;78.31
67005;HTU21D;53920;51.094;5.902;2023-01-29T03:19:49;-1.91;78.38
67005;HTU21D;53920;51.094;5.902;2023-01-29T03:22:21;-1.91;78.59
67005;HTU21D;53920;51.094;5.902;2023-01-29T03:24:56;-1.90;78.66
67005;HTU21D;53920;51.094;5.902;2023-01-29T03:27:56;-1.87;78.66
67005;HTU21D;53920;51.094;5.902;2023-01-29T03:30:55;-1.83;78.31
67005;HTU21D;53920;51.094;5.902;2023-01-29T03:36:33;-1.80;77.67
67005;HTU21D;53920;51.094;5.902;2023-01-29T03:39:07;-1.77;77.57
67005;HTU21D;53920;51.094;5.902;2023-01-29T03:41:46;-1.68;77.43
67005;HTU21D;53920;51.094;5.902;2023-01-29T03:44:16;-1.57;77.20
67005;HTU21D;53920;51.094;5.902;2023-01-29T03:46:51;-1.45;76.96
67005;HTU21D;53920;51.094;5.902;2023-01-29T03:55:08;-1.36;77.37
67005;HTU21D;53920;51.094;5.902;2023-01-29T04:01:18;-1.31;77.17
67005;HTU21D;53920;51.094;5.902;2023-01-29T04:03:42;-1.33;77.23
67005;HTU21D;53920;51.094;5.902;2023-01-29T04:06:19;-1.30;77.18
67005;HTU21D;53920;51.094;5.902;2023-01-29T04:09:14;-1.29;77.13
67005;HTU21D;53920;51.094;5.902;2023-01-29T04:11:55;-1.29;77.11
67005;HTU21D;53920;51.094;5.902;2023-01-29T04:14:23;-1.30;77.15
67005;HTU21D;53920;51.094;5.902;2023-01-29T04:16:56;-1.26;77.17
67005;HTU21D;53920;51.094;5.902;2023-01-29T04:19:52;-1.21;77.18
67005;HTU21D;53920;51.094;5.902;2023-01-29T04:22:29;-1.20;77.15
67005;HTU21D;53920;51.094;5.902;2023-01-29T04:25:02;-1.17;77.11
67005;HTU21D;53920;51.094;5.902;2023-01-29T04:33:24;-0.98;76.69
67005;HTU21D;53920;51.094;5.902;2023-01-29T04:39:21;-0.72;75.97
67005;HTU21D;53920;51.094;5.902;2023-01-29T04:44:48;-0.61;75.63
67005;HTU21D;53920;51.094;5.902;2023-01-29T04:50:22;-0.53;75.63
67005;HTU21D;53920;51.094;5.902;2023-01-29T04:53:13;-0.46;75.59
67005;HTU21D;53920;51.094;5.902;2023-01-29T04:55:53;-0.52;75.56
67005;HTU21D;53920;51.094;5.902;2023-01-29T04:58:39;-0.65;75.70
67005;HTU21D;53920;51.094;5.902;2023-01-29T05:01:13;-0.69;75.68
67005;HTU21D;53920;51.094;5.902;2023-01-29T05:03:49;-0.73;76.07
67005;HTU21D;53920;51.094;5.902;2023-01-29T05:06:18;-0.72;76.04
67005;HTU21D;53920;51.094;5.902;2023-01-29T05:08:47;-0.72;75.99
67005;HTU21D;53920;51.094;5.902;2023-01-29T05:11:16;-0.69;76.05
67005;HTU21D;53920;51.094;5.902;2023-01-29T05:13:44;-0.68;75.89
67005;HTU21D;53920;51.094;5.902;2023-01-29T05:16:21;-0.73;75.92
67005;HTU21D;53920;51.094;5.902;2023-01-29T05:18:49;-0.76;76.02
67005;HTU21D;53920;51.094;5.902;2023-01-29T05:21:15;-0.85;76.24
67005;HTU21D;53920;51.094;5.902;2023-01-29T05:23:41;-0.87;76.51
67005;HTU21D;53920;51.094;5.902;2023-01-29T05:26:19;-0.87;76.62
67005;HTU21D;53920;51.094;5.902;2023-01-29T05:29:05;-0.85;76.67
67005;HTU21D;53920;51.094;5.902;2023-01-29T05:31:31;-0.83;76.71
67005;HTU21D;53920;51.094;5.902;2023-01-29T05:33:56;-0.83;76.70
67005;HTU21D;53920;51.094;5.902;2023-01-29T05:36:23;-0.82;76.63
67005;HTU21D;53920;51.094;5.902;2023-01-29T05:38:50;-0.84;76.53
67005;HTU21D;53920;51.094;5.902;2023-01-29T05:41:16;-0.86;76.56
67005;HTU21D;53920;51.094;5.902;2023-01-29T05:43:42;-0.89;76.62
67005;HTU21D;53920;51.094;5.902;2023-01-29T05:46:08;-0.94;76.73
67005;HTU21D;53920;51.094;5.902;2023-01-29T05:48:34;-0.95;76.87
67005;HTU21D;53920;51.094;5.902;2023-01-29T05:51:00;-0.96;76.93
67005;HTU21D;53920;51.094;5.902;2023-01-29T05:53:31;-0.96;76.96
67005;HTU21D;53920;51.094;5.902;2023-01-29T05:56:01;-0.93;77.00
67005;HTU21D;53920;51.094;5.902;2023-01-29T05:58:28;-0.91;77.02
67005;HTU21D;53920;51.094;5.902;2023-01-29T06:00:54;-0.88;76.91
67005;HTU21D;53920;51.094;5.902;2023-01-29T06:03:20;-0.84;76.95
67005;HTU21D;53920;51.094;5.902;2023-01-29T06:05:46;-0.75;76.82
67005;HTU21D;53920;51.094;5.902;2023-01-29T06:08:12;-0.64;76.57
67005;HTU21D;53920;51.094;5.902;2023-01-29T06:10:38;-0.55;76.18
67005;HTU21D;53920;51.094;5.902;2023-01-29T06:13:04;-0.52;76.05
67005;HTU21D;53920;51.094;5.902;2023-01-29T06:15:30;-0.45;75.93
67005;HTU21D;53920;51.094;5.902;2023-01-29T06:17:56;-0.41;75.75
67005;HTU21D;53920;51.094;5.902;2023-01-29T06:20:23;-0.38;75.63
67005;HTU21D;53920;51.094;5.902;2023-01-29T06:22:49;-0.36;75.50
67005;HTU21D;53920;51.094;5.902;2023-01-29T06:25:15;-0.35;75.54
67005;HTU21D;53920;51.094;5.902;2023-01-29T06:27:40;-0.31;75.57
67005;HTU21D;53920;51.094;5.902;2023-01-29T06:30:07;-0.29;75.54
67005;HTU21D;53920;51.094;5.902;2023-01-29T06:32:33;-0.22;75.29
67005;HTU21D;53920;51.094;5.902;2023-01-29T06:34:59;-0.17;75.21
67005;HTU21D;53920;51.094;5.902;2023-01-29T06:37:25;-0.08;75.01
67005;HTU21D;53920;51.094;5.902;2023-01-29T06:39:51;0.05;74.89
67005;HTU21D;53920;51.094;5.902;2023-01-29T06:42:17;0.19;74.63
67005;HTU21D;53920;51.094;5.902;2023-01-29T06:44:45;0.33;74.22
67005;HTU21D;53920;51.094;5.902;2023-01-29T06:47:10;0.33;73.92
67005;HTU21D;53920;51.094;5.902;2023-01-29T06:49:36;0.28;73.93
67005;HTU21D;53920;51.094;5.902;2023-01-29T06:52:02;0.21;74.09
67005;HTU21D;53920;51.094;5.902;2023-01-29T06:54:28;0.18;74.18
67005;HTU21D;53920;51.094;5.902;2023-01-29T06:56:55;0.19;74.15
67005;HTU21D;53920;51.094;5.902;2023-01-29T06:59:21;0.18;74.12
67005;HTU21D;53920;51.094;5.902;2023-01-29T07:01:47;0.17;74.07
67005;HTU21D;53920;51.094;5.902;2023-01-29T07:04:14;0.17;74.15
67005;HTU21D;53920;51.094;5.902;2023-01-29T07:06:40;0.21;74.13
67005;HTU21D;53920;51.094;5.902;2023-01-29T07:09:06;0.22;74.06
67005;HTU21D;53920;51.094;5.902;2023-01-29T07:11:34;0.22;73.93
67005;HTU21D;53920;51.094;5.902;2023-01-29T07:14:00;0.20;74.03
67005;HTU21D;53920;51.094;5.902;2023-01-29T07:16:26;0.20;74.18
67005;HTU21D;53920;51.094;5.902;2023-01-29T07:18:51;0.27;74.03
67005;HTU21D;53920;51.094;5.902;2023-01-29T07:21:18;0.30;73.90
67005;HTU21D;53920;51.094;5.902;2023-01-29T07:23:44;0.32;73.97
67005;HTU21D;53920;51.094;5.902;2023-01-29T07:26:10;0.32;73.76
67005;HTU21D;53920;51.094;5.902;2023-01-29T07:28:37;0.29;73.80
67005;HTU21D;53920;51.094;5.902;2023-01-29T07:31:04;0.30;73.86
67005;HTU21D;53920;51.094;5.902;2023-01-29T07:33:31;0.28;73.97
67005;HTU21D;53920;51.094;5.902;2023-01-29T07:35:57;0.27;73.86
67005;HTU21D;53920;51.094;5.902;2023-01-29T07:38:23;0.31;73.67
67005;HTU21D;53920;51.094;5.902;2023-01-29T07:40:53;0.34;73.65
67005;HTU21D;53920;51.094;5.902;2023-01-29T07:43:19;0.30;73.71
67005;HTU21D;53920;51.094;5.902;2023-01-29T07:45:45;0.35;73.44
67005;HTU21D;53920;51.094;5.902;2023-01-29T07:48:12;0.35;73.55
67005;HTU21D;53920;51.094;5.902;2023-01-29T07:50:40;0.40;73.50
67005;HTU21D;53920;51.094;5.902;2023-01-29T07:53:06;0.46;73.40
67005;HTU21D;53920;51.094;5.902;2023-01-29T07:55:32;0.51;73.41
67005;HTU21D;53920;51.094;5.902;2023-01-29T07:58:01;0.59;73.36
67005;HTU21D;53920;51.094;5.902;2023-01-29T08:00:28;0.66;73.31
67005;HTU21D;53920;51.094;5.902;2023-01-29T08:03:01;0.73;73.21
67005;HTU21D;53920;51.094;5.902;2023-01-29T08:05:28;0.79;73.22
67005;HTU21D;53920;51.094;5.902;2023-01-29T08:07:54;0.84;72.91
67005;HTU21D;53920;51.094;5.902;2023-01-29T08:10:21;0.83;72.92
67005;HTU21D;53920;51.094;5.902;2023-01-29T08:12:47;0.82;72.96
67005;HTU21D;53920;51.094;5.902;2023-01-29T08:15:12;0.82;73.04
67005;HTU21D;53920;51.094;5.902;2023-01-29T08:17:39;0.87;73.09
67005;HTU21D;53920;51.094;5.902;2023-01-29T08:20:06;0.96;72.97
67005;HTU21D;53920;51.094;5.902;2023-01-29T08:22:32;1.04;72.58
67005;HTU21D;53920;51.094;5.902;2023-01-29T08:24:58;1.06;72.33
67005;HTU21D;53920;51.094;5.902;2023-01-29T08:27:24;1.12;72.29
67005;HTU21D;53920;51.094;5.902;2023-01-29T08:29:50;1.13;72.36
67005;HTU21D;53920;51.094;5.902;2023-01-29T08:32:16;1.23;72.25
67005;HTU21D;53920;51.094;5.902;2023-01-29T08:34:42;1.25;72.10
67005;HTU21D;53920;51.094;5.902;2023-01-29T08:37:08;1.24;72.27
67005;HTU21D;53920;51.094;5.902;2023-01-29T08:39:34;1.24;72.16
67005;HTU21D;53920;51.094;5.902;2023-01-29T08:42:00;1.22;72.21
67005;HTU21D;53920;51.094;5.902;2023-01-29T08:44:26;1.28;72.18
67005;HTU21D;53920;51.094;5.902;2023-01-29T08:46:52;1.29;72.06
67005;HTU21D;53920;51.094;5.902;2023-01-29T08:49:18;1.25;72.02
67005;HTU21D;53920;51.094;5.902;2023-01-29T08:51:44;1.26;72.02
67005;HTU21D;53920;51.094;5.902;2023-01-29T08:54:09;1.28;72.00
67005;HTU21D;53920;51.094;5.902;2023-01-29T08:56:36;1.35;71.76
67005;HTU21D;53920;51.094;5.902;2023-01-29T08:59:03;1.32;71.76
67005;HTU21D;53920;51.094;5.902;2023-01-29T09:01:28;1.32;71.59
67005;HTU21D;53920;51.094;5.902;2023-01-29T09:03:54;1.35;71.65
67005;HTU21D;53920;51.094;5.902;2023-01-29T09:06:20;1.32;71.83
67005;HTU21D;53920;51.094;5.902;2023-01-29T09:08:46;1.35;71.71
67005;HTU21D;53920;51.094;5.902;2023-01-29T09:11:12;1.32;71.98
67005;HTU21D;53920;51.094;5.902;2023-01-29T09:13:39;1.42;71.93
67005;HTU21D;53920;51.094;5.902;2023-01-29T09:16:05;1.55;71.71
67005;HTU21D;53920;51.094;5.902;2023-01-29T09:18:31;1.62;71.60
67005;HTU21D;53920;51.094;5.902;2023-01-29T09:20:57;1.68;71.26
67005;HTU21D;53920;51.094;5.902;2023-01-29T09:23:23;1.72;71.16
67005;HTU21D;53920;51.094;5.902;2023-01-29T09:25:49;1.73;71.13
67005;HTU21D;53920;51.094;5.902;2023-01-29T09:28:15;1.79;70.88
67005;HTU21D;53920;51.094;5.902;2023-01-29T09:30:44;1.77;70.74
67005;HTU21D;53920;51.094;5.902;2023-01-29T09:33:11;1.77;70.85
67005;HTU21D;53920;51.094;5.902;2023-01-29T09:35:40;1.81;70.48
67005;HTU21D;53920;51.094;5.902;2023-01-29T09:38:10;1.79;70.36
67005;HTU21D;53920;51.094;5.902;2023-01-29T09:43:41;1.85;70.10
67005;HTU21D;53920;51.094;5.902;2023-01-29T09:46:22;1.84;70.23
67005;HTU21D;53920;51.094;5.902;2023-01-29T09:49:29;1.97;70.10
67005;HTU21D;53920;51.094;5.902;2023-01-29T09:52:03;2.00;70.16
67005;HTU21D;53920;51.094;5.902;2023-01-29T10:00:17;2.27;69.55
67005;HTU21D;53920;51.094;5.902;2023-01-29T10:05:58;2.28;69.35
67005;HTU21D;53920;51.094;5.902;2023-01-29T10:25:22;2.37;69.09
67005;HTU21D;53920;51.094;5.902;2023-01-29T10:27:55;2.37;69.09
67005;HTU21D;53920;51.094;5.902;2023-01-29T10:30:37;2.37;69.20
67005;HTU21D;53920;51.094;5.902;2023-01-29T10:33:11;2.43;69.13
67005;HTU21D;53920;51.094;5.902;2023-01-29T10:35:55;2.53;68.89
67005;HTU21D;53920;51.094;5.902;2023-01-29T10:38:42;2.57;68.73
67005;HTU21D;53920;51.094;5.902;2023-01-29T10:43:48;2.67;68.58
67005;HTU21D;53920;51.094;5.902;2023-01-29T11:00:34;3.01;67.99
67005;HTU21D;53920;51.094;5.902;2023-01-29T11:05:46;3.01;67.89
67005;HTU21D;53920;51.094;5.902;2023-01-29T11:08:21;2.86;68.14
67005;HTU21D;53920;51.094;5.902;2023-01-29T11:13:17;2.88;68.21
67005;HTU21D;53920;51.094;5.902;2023-01-29T11:15:43;2.87;68.25
67005;HTU21D;53920;51.094;5.902;2023-01-29T11:18:12;2.96;68.18
67005;HTU21D;53920;51.094;5.902;2023-01-29T11:20:41;3.00;67.86
67005;HTU21D;53920;51.094;5.902;2023-01-29T11:23:31;2.93;67.91
67005;HTU21D;53920;51.094;5.902;2023-01-29T11:25:59;2.85;68.17
67005;HTU21D;53920;51.094;5.902;2023-01-29T11:28:40;2.86;68.07
67005;HTU21D;53920;51.094;5.902;2023-01-29T11:31:29;2.78;68.06
67005;HTU21D;53920;51.094;5.902;2023-01-29T11:34:22;2.81;68.10
67005;HTU21D;53920;51.094;5.902;2023-01-29T11:37:04;2.87;67.97
67005;HTU21D;53920;51.094;5.902;2023-01-29T11:39:43;2.93;68.14
67005;HTU21D;53920;51.094;5.902;2023-01-29T11:42:20;3.04;68.07
67005;HTU21D;53920;51.094;5.902;2023-01-29T11:44:47;3.15;67.82
67005;HTU21D;53920;51.094;5.902;2023-01-29T11:47:22;3.24;67.62
67005;HTU21D;53920;51.094;5.902;2023-01-29T11:50:02;3.30;67.06
67005;HTU21D;53920;51.094;5.902;2023-01-29T11:52:41;3.24;67.04
67005;HTU21D;53920;51.094;5.902;2023-01-29T11:55:18;3.20;66.80
67005;HTU21D;53920;51.094;5.902;2023-01-29T11:58:00;3.23;66.59
67005;HTU21D;53920;51.094;5.902;2023-01-29T12:00:34;3.06;66.60
67005;HTU21D;53920;51.094;5.902;2023-01-29T12:03:21;3.01;66.69
67005;HTU21D;53920;51.094;5.902;2023-01-29T12:06:00;3.00;66.72
67005;HTU21D;53920;51.094;5.902;2023-01-29T12:08:35;3.03;66.93
67005;HTU21D;53920;51.094;5.902;2023-01-29T12:11:14;3.06;66.84
67005;HTU21D;53920;51.094;5.902;2023-01-29T12:14:00;3.09;66.65
67005;HTU21D;53920;51.094;5.902;2023-01-29T12:16:41;3.01;66.82
67005;HTU21D;53920;51.094;5.902;2023-01-29T12:19:14;3.02;67.01
67005;HTU21D;53920;51.094;5.902;2023-01-29T12:22:08;3.06;66.89
67005;HTU21D;53920;51.094;5.902;2023-01-29T12:24:55;3.16;66.89
67005;HTU21D;53920;51.094;5.902;2023-01-29T12:30:16;3.18;66.76
67005;HTU21D;53920;51.094;5.902;2023-01-29T12:35:41;3.25;66.75
67005;HTU21D;53920;51.094;5.902;2023-01-29T12:40:47;3.26;66.81
67005;HTU21D;53920;51.094;5.902;2023-01-29T12:43:17;3.27;66.71
67005;HTU21D;53920;51.094;5.902;2023-01-29T12:45:51;3.21;67.00
67005;HTU21D;53920;51.094;5.902;2023-01-29T12:48:26;3.26;67.06
67005;HTU21D;53920;51.094;5.902;2023-01-29T12:51:09;3.28;66.98
67005;HTU21D;53920;51.094;5.902;2023-01-29T12:53:56;3.32;67.01
67005;HTU21D;53920;51.094;5.902;2023-01-29T12:56:45;3.41;66.85
67005;HTU21D;53920;51.094;5.902;2023-01-29T13:04:59;3.58;66.41
67005;HTU21D;53920;51.094;5.902;2023-01-29T13:07:38;3.58;66.43
67005;HTU21D;53920;51.094;5.902;2023-01-29T13:10:13;3.64;66.33
67005;HTU21D;53920;51.094;5.902;2023-01-29T13:12:52;3.71;66.13
67005;HTU21D;53920;51.094;5.902;2023-01-29T13:15:31;3.78;65.84
67005;HTU21D;53920;51.094;5.902;2023-01-29T13:20:45;3.78;65.94
67005;HTU21D;53920;51.094;5.902;2023-01-29T13:23:21;3.76;66.07
67005;HTU21D;53920;51.094;5.902;2023-01-29T13:25:52;3.84;66.01
67005;HTU21D;53920;51.094;5.902;2023-01-29T13:28:22;3.94;65.84
67005;HTU21D;53920;51.094;5.902;2023-01-29T13:31:17;4.06;65.74
67005;HTU21D;53920;51.094;5.902;2023-01-29T13:34:05;4.15;65.62
67005;HTU21D;53920;51.094;5.902;2023-01-29T13:36:35;4.17;65.46
67005;HTU21D;53920;51.094;5.902;2023-01-29T13:39:35;4.22;65.37
67005;HTU21D;53920;51.094;5.902;2023-01-29T13:42:13;4.12;65.34
67005;HTU21D;53920;51.094;5.902;2023-01-29T13:44:40;4.07;65.57
67005;HTU21D;53920;51.094;5.902;2023-01-29T13:47:21;4.07;65.46
67005;HTU21D;53920;51.094;5.902;2023-01-29T13:49:59;4.00;65.85
67005;HTU21D;53920;51.094;5.902;2023-01-29T13:52:55;3.89;66.11
67005;HTU21D;53920;51.094;5.902;2023-01-29T13:58:00;3.82;66.41
67005;HTU21D;53920;51.094;5.902;2023-01-29T14:05:58;3.88;66.65
67005;HTU21D;53920;51.094;5.902;2023-01-29T14:13:38;3.78;66.71
67005;HTU21D;53920;51.094;5.902;2023-01-29T14:18:35;3.80;66.53
67005;HTU21D;53920;51.094;5.902;2023-01-29T14:21:04;3.83;66.69
67005;HTU21D;53920;51.094;5.902;2023-01-29T14:26:03;3.87;66.33
67005;HTU21D;53920;51.094;5.902;2023-01-29T14:28:33;3.90;66.35
67005;HTU21D;53920;51.094;5.902;2023-01-29T14:31:00;3.93;66.31
67005;HTU21D;53920;51.094;5.902;2023-01-29T14:33:37;3.90;66.24
67005;HTU21D;53920;51.094;5.902;2023-01-29T14:36:13;3.91;66.27
67005;HTU21D;53920;51.094;5.902;2023-01-29T14:38:49;3.91;66.07
67005;HTU21D;53920;51.094;5.902;2023-01-29T14:43:50;3.92;66.18
67005;HTU21D;53920;51.094;5.902;2023-01-29T14:49:01;3.95;66.06
67005;HTU21D;53920;51.094;5.902;2023-01-29T14:51:36;3.97;66.04
67005;HTU21D;53920;51.094;5.902;2023-01-29T14:54:29;3.97;65.90
67005;HTU21D;53920;51.094;5.902;2023-01-29T14:57:02;3.95;65.93
67005;HTU21D;53920;51.094;5.902;2023-01-29T14:59:42;3.99;65.81
67005;HTU21D;53920;51.094;5.902;2023-01-29T15:02:38;4.01;65.79
67005;HTU21D;53920;51.094;5.902;2023-01-29T15:05:09;4.02;65.59
67005;HTU21D;53920;51.094;5.902;2023-01-29T15:07:53;4.02;65.56
67005;HTU21D;53920;51.094;5.902;2023-01-29T15:10:50;4.05;65.66
67005;HTU21D;53920;51.094;5.902;2023-01-29T15:19:47;4.02;65.63
67005;HTU21D;53920;51.094;5.902;2023-01-29T15:24:42;4.04;65.59
67005;HTU21D;53920;51.094;5.902;2023-01-29T15:27:15;4.02;65.64
67005;HTU21D;53920;51.094;5.902;2023-01-29T15:29:46;4.05;65.48
67005;HTU21D;53920;51.094;5.902;2023-01-29T15:32:27;4.01;65.59
67005;HTU21D;53920;51.094;5.902;2023-01-29T15:34:57;4.02;65.74
67005;HTU21D;53920;51.094;5.902;2023-01-29T15:37:29;3.98;65.79
67005;HTU21D;53920;51.094;5.902;2023-01-29T15:39:56;3.99;65.70
67005;HTU21D;53920;51.094;5.902;2023-01-29T15:42:24;3.94;65.98
67005;HTU21D;53920;51.094;5.902;2023-01-29T15:44:52;3.97;66.09
67005;HTU21D;53920;51.094;5.902;2023-01-29T15:47:27;3.91;66.17
67005;HTU21D;53920;51.094;5.902;2023-01-29T15:49:55;3.91;66.13
67005;HTU21D;53920;51.094;5.902;2023-01-29T15:52:26;3.99;66.02
67005;HTU21D;53920;51.094;5.902;2023-01-29T15:54:55;3.97;66.02
67005;HTU21D;53920;51.094;5.902;2023-01-29T15:57:27;4.01;66.05
67005;HTU21D;53920;51.094;5.902;2023-01-29T15:59:56;4.02;66.11
67005;HTU21D;53920;51.094;5.902;2023-01-29T16:02:41;4.01;66.26
67005;HTU21D;53920;51.094;5.902;2023-01-29T16:05:16;4.02;66.33
67005;HTU21D;53920;51.094;5.902;2023-01-29T16:07:44;4.00;66.47
67005;HTU21D;53920;51.094;5.902;2023-01-29T16:12:44;4.03;66.37
67005;HTU21D;53920;51.094;5.902;2023-01-29T16:15:35;4.06;66.20
67005;HTU21D;53920;51.094;5.902;2023-01-29T16:18:17;4.01;65.82
67005;HTU21D;53920;51.094;5.902;2023-01-29T16:20:50;4.03;65.95
67005;HTU21D;53920;51.094;5.902;2023-01-29T16:23:27;4.00;66.01
67005;HTU21D;53920;51.094;5.902;2023-01-29T16:26:05;4.00;66.06
67005;HTU21D;53920;51.094;5.902;2023-01-29T16:28:38;4.02;65.80
67005;HTU21D;53920;51.094;5.902;2023-01-29T16:31:05;3.98;65.71
67005;HTU21D;53920;51.094;5.902;2023-01-29T16:33:35;3.97;65.73
67005;HTU21D;53920;51.094;5.902;2023-01-29T16:36:15;3.90;65.81
67005;HTU21D;53920;51.094;5.902;2023-01-29T16:38:46;3.90;65.79
67005;HTU21D;53920;51.094;5.902;2023-01-29T16:43:46;3.86;65.81
67005;HTU21D;53920;51.094;5.902;2023-01-29T16:46:45;3.85;65.73
67005;HTU21D;53920;51.094;5.902;2023-01-29T16:52:25;3.84;65.85
67005;HTU21D;53920;51.094;5.902;2023-01-29T16:54:57;3.80;65.56
67005;HTU21D;53920;51.094;5.902;2023-01-29T16:57:28;3.95;65.22
67005;HTU21D;53920;51.094;5.902;2023-01-29T17:00:00;3.90;65.48
67005;HTU21D;53920;51.094;5.902;2023-01-29T17:02:32;3.87;65.58
67005;HTU21D;53920;51.094;5.902;2023-01-29T17:05:07;3.87;65.40
67005;HTU21D;53920;51.094;5.902;2023-01-29T17:07:36;3.95;65.18
67005;HTU21D;53920;51.094;5.902;2023-01-29T17:10:05;3.98;65.15
67005;HTU21D;53920;51.094;5.902;2023-01-29T17:12:33;3.98;65.06
67005;HTU21D;53920;51.094;5.902;2023-01-29T17:15:02;4.02;65.03
67005;HTU21D;53920;51.094;5.902;2023-01-29T17:17:34;4.04;64.96
67005;HTU21D;53920;51.094;5.902;2023-01-29T17:20:15;4.00;65.02
67005;HTU21D;53920;51.094;5.902;2023-01-29T17:22:42;4.00;64.85
67005;HTU21D;53920;51.094;5.902;2023-01-29T17:25:12;4.00;64.82
67005;HTU21D;53920;51.094;5.902;2023-01-29T17:27:40;4.01;64.87
67005;HTU21D;53920;51.094;5.902;2023-01-29T17:30:28;3.98;64.93
67005;HTU21D;53920;51.094;5.902;2023-01-29T17:32:55;3.93;64.98
67005;HTU21D;53920;51.094;5.902;2023-01-29T17:35:21;3.92;65.03
67005;HTU21D;53920;51.094;5.902;2023-01-29T17:37:47;3.99;65.03
67005;HTU21D;53920;51.094;5.902;2023-01-29T17:40:19;4.04;64.87
67005;HTU21D;53920;51.094;5.902;2023-01-29T17:42:49;4.05;64.92
67005;HTU21D;53920;51.094;5.902;2023-01-29T17:45:14;4.00;64.93
67005;HTU21D;53920;51.094;5.902;2023-01-29T17:47:40;3.99;64.90
67005;HTU21D;53920;51.094;5.902;2023-01-29T17:50:20;3.97;65.08
67005;HTU21D;53920;51.094;5.902;2023-01-29T17:52:46;3.94;65.16
67005;HTU21D;53920;51.094;5.902;2023-01-29T17:55:12;3.94;65.18
67005;HTU21D;53920;51.094;5.902;2023-01-29T17:57:38;4.01;65.05
67005;HTU21D;53920;51.094;5.902;2023-01-29T18:00:19;3.95;65.16
67005;HTU21D;53920;51.094;5.902;2023-01-29T18:02:46;4.01;65.27
67005;HTU21D;53920;51.094;5.902;2023-01-29T18:05:13;4.06;65.02
67005;HTU21D;53920;51.094;5.902;2023-01-29T18:07:42;4.13;64.98
67005;HTU21D;53920;51.094;5.902;2023-01-29T18:10:15;4.08;64.98
67005;HTU21D;53920;51.094;5.902;2023-01-29T18:12:42;3.98;65.40
67005;HTU21D;53920;51.094;5.902;2023-01-29T18:15:09;4.01;65.28
67005;HTU21D;53920;51.094;5.902;2023-01-29T18:17:36;4.04;65.27
67005;HTU21D;53920;51.094;5.902;2023-01-29T18:20:02;4.04;65.32
67005;HTU21D;53920;51.094;5.902;2023-01-29T18:22:29;4.04;65.36
67005;HTU21D;53920;51.094;5.902;2023-01-29T18:24:54;4.12;65.13
67005;HTU21D;53920;51.094;5.902;2023-01-29T18:27:20;4.02;65.47
67005;HTU21D;53920;51.094;5.902;2023-01-29T18:30:05;4.04;65.54